createdAt,value
2018-12-18T00:01:03.663Z,5.50
2018-12-18T00:03:31.802Z,5.40
2018-12-18T00:05:59.953Z,5.50
2018-12-18T00:08:28.119Z,5.50
2018-12-18T00:11:01.692Z,5.60
2018-12-18T00:13:29.947Z,5.60
2018-12-18T00:15:58.119Z,5.70
2018-12-18T00:18:26.328Z,5.80
2018-12-18T00:20:54.859Z,5.80
2018-12-18T00:23:23.235Z,5.80
2018-12-18T00:25:51.407Z,5.90
2018-12-18T00:28:19.695Z,5.80
2018-12-18T00:30:47.923Z,5.80
2018-12-18T00:33:16.332Z,5.80
2018-12-18T00:35:44.502Z,5.80
2018-12-18T00:38:13.411Z,5.00
2018-12-18T00:40:41.676Z,5.70
2018-12-18T00:43:09.840Z,5.60
2018-12-18T00:45:38.395Z,5.60
2018-12-18T00:48:06.575Z,5.70
2018-12-18T00:50:34.771Z,5.70
2018-12-18T00:53:02.995Z,5.70
2018-12-18T00:55:31.198Z,5.80
2018-12-18T00:57:59.411Z,5.80
2018-12-18T01:00:27.687Z,5.80
2018-12-18T01:02:55.959Z,5.80
2018-12-18T01:05:24.237Z,5.80
2018-12-18T01:07:53.517Z,5.80
2018-12-18T01:10:21.963Z,5.70
2018-12-18T01:12:50.281Z,5.60
2018-12-18T01:15:18.451Z,5.60
2018-12-18T01:17:46.631Z,5.50
2018-12-18T01:20:14.895Z,5.60
2018-12-18T01:22:43.060Z,5.50
2018-12-18T01:25:11.376Z,5.50
2018-12-18T01:27:39.544Z,5.50
2018-12-18T01:30:07.957Z,5.40
2018-12-18T01:32:36.123Z,5.40
2018-12-18T01:35:05.207Z,5.40
2018-12-18T01:37:33.375Z,5.30
2018-12-18T01:40:01.571Z,5.30
2018-12-18T01:42:29.751Z,5.30
2018-12-18T01:44:57.935Z,5.30
2018-12-18T01:47:26.263Z,5.30
2018-12-18T01:49:54.460Z,5.30
2018-12-18T01:52:22.610Z,5.30
2018-12-18T01:54:50.855Z,5.20
2018-12-18T01:57:19.025Z,5.30
2018-12-18T01:59:47.174Z,5.20
2018-12-18T02:02:15.375Z,5.20
2018-12-18T02:04:43.576Z,5.10
2018-12-18T02:07:11.760Z,5.00
2018-12-18T02:09:39.983Z,5.00
2018-12-18T02:12:08.158Z,5.00
2018-12-18T02:14:36.346Z,4.90
2018-12-18T02:17:04.936Z,4.90
2018-12-18T02:19:33.187Z,4.80
2018-12-18T02:22:01.384Z,4.80
2018-12-18T02:24:29.556Z,4.70
2018-12-18T02:26:57.786Z,4.70
2018-12-18T02:29:25.931Z,4.70
2018-12-18T02:31:54.101Z,4.70
2018-12-18T02:34:22.320Z,4.70
2018-12-18T02:36:50.545Z,4.80
2018-12-18T02:39:18.794Z,4.80
2018-12-18T02:41:47.019Z,4.70
2018-12-18T02:44:15.311Z,4.70
2018-12-18T02:46:43.583Z,4.70
2018-12-18T02:49:11.824Z,4.70
2018-12-18T02:51:40.063Z,4.60
2018-12-18T02:54:08.303Z,4.50
2018-12-18T02:56:36.532Z,4.50
2018-12-18T02:59:04.795Z,4.50
2018-12-18T03:01:32.967Z,4.50
2018-12-18T03:04:01.260Z,4.60
2018-12-18T03:06:29.456Z,4.50
2018-12-18T03:08:57.674Z,4.50
2018-12-18T03:11:25.828Z,4.50
2018-12-18T03:13:53.956Z,4.50
2018-12-18T03:16:22.194Z,4.40
2018-12-18T03:18:50.331Z,4.40
2018-12-18T03:21:18.628Z,4.50
2018-12-18T03:23:46.791Z,4.50
2018-12-18T03:26:14.935Z,4.50
2018-12-18T03:28:43.108Z,4.40
2018-12-18T03:31:11.316Z,4.40
2018-12-18T03:33:39.563Z,4.40
2018-12-18T03:36:07.762Z,4.30
2018-12-18T03:38:35.919Z,4.30
2018-12-18T03:41:04.151Z,4.30
2018-12-18T03:43:32.299Z,4.30
2018-12-18T03:46:00.571Z,4.30
2018-12-18T03:48:28.826Z,4.30
2018-12-18T03:50:57.064Z,4.30
2018-12-18T03:53:25.422Z,4.20
2018-12-18T03:55:53.712Z,4.20
2018-12-18T03:58:21.837Z,4.20
2018-12-18T04:00:50.223Z,4.20
2018-12-18T04:03:18.352Z,4.30
2018-12-18T04:05:46.528Z,4.30
2018-12-18T04:08:14.875Z,4.30
2018-12-18T04:10:43.099Z,4.30
2018-12-18T04:13:11.363Z,4.20
2018-12-18T04:15:39.689Z,4.20
2018-12-18T04:18:07.834Z,4.10
2018-12-18T04:20:36.375Z,4.10
2018-12-18T04:23:04.824Z,4.00
2018-12-18T04:25:33.100Z,4.00
2018-12-18T04:28:01.211Z,4.00
2018-12-18T04:30:29.415Z,4.00
2018-12-18T04:32:57.547Z,3.90
2018-12-18T04:35:26.043Z,4.00
2018-12-18T04:37:54.364Z,4.00
2018-12-18T04:40:22.610Z,4.00
2018-12-18T04:42:50.802Z,3.90
2018-12-18T04:45:19.179Z,3.90
2018-12-18T04:47:47.369Z,3.90
2018-12-18T04:50:15.567Z,4.00
2018-12-18T04:52:43.755Z,4.00
2018-12-18T04:55:11.968Z,4.00
2018-12-18T04:57:40.119Z,4.00
2018-12-18T05:00:09.279Z,3.90
2018-12-18T05:02:37.529Z,3.90
2018-12-18T05:05:05.936Z,3.80
2018-12-18T05:07:34.107Z,3.80
2018-12-18T05:10:02.364Z,3.80
2018-12-18T05:12:30.595Z,3.80
2018-12-18T05:14:58.810Z,3.70
2018-12-18T05:17:27.189Z,3.80
2018-12-18T05:19:55.439Z,3.70
2018-12-18T05:22:23.691Z,3.70
2018-12-18T05:24:51.831Z,3.70
2018-12-18T05:27:19.983Z,3.60
2018-12-18T05:29:48.143Z,3.50
2018-12-18T05:32:16.411Z,3.50
2018-12-18T05:34:44.558Z,3.60
2018-12-18T05:37:12.831Z,3.60
2018-12-18T05:39:41.008Z,3.50
2018-12-18T05:42:09.171Z,3.40
2018-12-18T05:44:37.363Z,3.40
2018-12-18T05:47:05.603Z,3.40
2018-12-18T05:49:33.756Z,3.40
2018-12-18T05:52:01.996Z,3.30
2018-12-18T05:54:30.187Z,3.20
2018-12-18T05:56:58.338Z,3.20
2018-12-18T05:59:26.588Z,3.20
2018-12-18T06:01:54.791Z,3.20
2018-12-18T06:04:22.930Z,3.20
2018-12-18T06:06:51.115Z,3.30
2018-12-18T06:09:19.233Z,3.30
2018-12-18T06:11:47.451Z,3.30
2018-12-18T06:14:15.615Z,3.40
2018-12-18T06:16:43.961Z,3.30
2018-12-18T06:19:12.247Z,3.20
2018-12-18T06:21:40.415Z,3.20
2018-12-18T06:24:08.619Z,3.10
2018-12-18T06:26:36.957Z,3.20
2018-12-18T06:29:05.091Z,3.10
2018-12-18T06:31:33.235Z,3.00
2018-12-18T06:34:01.391Z,3.00
2018-12-18T06:36:29.542Z,3.00
2018-12-18T06:38:57.763Z,3.00
2018-12-18T06:41:25.929Z,3.00
2018-12-18T06:43:53.466Z,3.00
2018-12-18T06:46:21.623Z,3.00
2018-12-18T06:48:49.775Z,3.00
2018-12-18T06:51:17.899Z,3.00
2018-12-18T06:53:46.071Z,2.80
2018-12-18T06:56:14.270Z,2.70
2018-12-18T06:58:42.423Z,2.70
2018-12-18T07:01:10.627Z,2.60
2018-12-18T07:03:38.859Z,2.60
2018-12-18T07:06:07.091Z,2.50
2018-12-18T07:08:35.251Z,2.50
2018-12-18T07:11:03.728Z,2.50
2018-12-18T07:13:31.884Z,2.60
2018-12-18T07:16:00.175Z,2.60
2018-12-18T07:18:28.323Z,2.50
2018-12-18T07:20:56.487Z,2.60
2018-12-18T07:23:24.672Z,2.50
2018-12-18T07:25:52.900Z,2.40
2018-12-18T07:28:21.092Z,2.40
2018-12-18T07:30:49.387Z,2.40
2018-12-18T07:33:17.515Z,2.50
2018-12-18T07:35:45.743Z,2.50
2018-12-18T07:38:13.943Z,2.50
2018-12-18T07:40:42.119Z,2.60
2018-12-18T07:43:10.284Z,2.60
2018-12-18T07:45:38.431Z,2.70
2018-12-18T07:48:05.892Z,2.80
2018-12-18T07:50:34.147Z,2.80
2018-12-18T07:53:02.321Z,2.80
2018-12-18T07:55:30.511Z,2.80
2018-12-18T07:57:58.653Z,2.80
2018-12-18T08:00:26.791Z,2.80
2018-12-18T08:02:54.955Z,2.80
2018-12-18T08:05:29.682Z,2.80
2018-12-18T08:07:53.429Z,2.90
2018-12-18T08:10:21.775Z,2.90
2018-12-18T08:12:49.973Z,3.00
2018-12-18T08:15:18.420Z,3.10
2018-12-18T08:17:45.867Z,3.20
2018-12-18T08:20:14.320Z,3.20
2018-12-18T08:22:42.536Z,3.30
2018-12-18T08:25:10.719Z,3.30
2018-12-18T08:27:38.159Z,3.40
2018-12-18T08:30:07.987Z,3.40
2018-12-18T08:32:36.264Z,3.40
2018-12-18T08:35:05.059Z,3.50
2018-12-18T08:37:32.602Z,3.60
2018-12-18T08:40:00.772Z,3.60
2018-12-18T08:42:28.239Z,3.70
2018-12-18T08:44:55.730Z,3.70
2018-12-18T08:47:23.939Z,3.80
2018-12-18T08:49:52.099Z,3.80
2018-12-18T08:52:20.267Z,3.90
2018-12-18T08:54:48.455Z,3.90
2018-12-18T08:57:16.594Z,3.90
2018-12-18T08:59:44.760Z,3.90
2018-12-18T09:02:12.950Z,3.90
2018-12-18T09:04:41.183Z,4.00
2018-12-18T09:07:09.303Z,3.90
2018-12-18T09:09:37.470Z,3.90
2018-12-18T09:12:07.677Z,4.00
2018-12-18T09:14:35.123Z,3.90
2018-12-18T09:17:03.303Z,3.90
2018-12-18T09:19:31.887Z,4.00
2018-12-18T09:22:00.539Z,4.00
2018-12-18T09:24:28.016Z,4.00
2018-12-18T09:26:55.509Z,4.00
2018-12-18T09:29:23.710Z,4.00
2018-12-18T09:31:51.871Z,4.00
2018-12-18T09:34:20.062Z,4.10
2018-12-18T09:36:48.343Z,4.10
2018-12-18T09:39:24.016Z,4.10
2018-12-18T09:41:56.431Z,4.20
2018-12-18T09:44:23.977Z,4.30
2018-12-18T09:46:52.099Z,4.30
2018-12-18T09:49:20.422Z,4.30
2018-12-18T09:51:47.866Z,4.30
2018-12-18T09:54:16.039Z,4.30
2018-12-18T09:56:50.364Z,4.30
2018-12-18T09:59:18.821Z,4.40
2018-12-18T10:01:47.018Z,4.40
2018-12-18T10:04:15.271Z,4.50
2018-12-18T10:06:44.996Z,4.60
2018-12-18T10:09:13.479Z,4.60
2018-12-18T10:11:41.624Z,4.60
2018-12-18T10:14:10.052Z,4.60
2018-12-18T10:16:38.215Z,4.50
2018-12-18T10:19:06.447Z,4.50
2018-12-18T10:21:34.570Z,4.40
2018-12-18T10:24:02.891Z,4.40
2018-12-18T10:26:31.059Z,4.40
2018-12-18T10:28:59.213Z,4.40
2018-12-18T10:31:27.422Z,4.50
2018-12-18T10:33:55.621Z,4.60
2018-12-18T10:36:23.947Z,4.60
2018-12-18T10:38:52.071Z,4.70
2018-12-18T10:41:20.245Z,4.50
2018-12-18T10:43:47.722Z,4.40
2018-12-18T10:46:15.977Z,4.40
2018-12-18T10:48:44.171Z,4.30
2018-12-18T10:51:12.363Z,4.30
2018-12-18T10:53:40.543Z,4.30
2018-12-18T10:56:08.762Z,4.30
2018-12-18T10:58:36.936Z,4.30
2018-12-18T11:01:10.595Z,4.30
2018-12-18T11:03:39.054Z,4.20
2018-12-18T11:06:09.972Z,4.30
2018-12-18T11:08:37.502Z,4.20
2018-12-18T11:11:05.845Z,4.30
2018-12-18T11:13:34.837Z,4.30
2018-12-18T11:16:03.344Z,4.40
2018-12-18T11:18:31.503Z,4.50
2018-12-18T11:20:59.715Z,4.60
2018-12-18T11:23:27.955Z,4.80
2018-12-18T11:25:56.143Z,5.00
2018-12-18T11:28:24.323Z,5.10
2018-12-18T11:30:52.543Z,5.10
2018-12-18T11:33:20.687Z,5.30
2018-12-18T11:35:48.931Z,5.50
2018-12-18T11:38:17.120Z,5.80
2018-12-18T11:40:45.364Z,6.00
2018-12-18T11:43:13.515Z,6.20
2018-12-18T11:45:41.841Z,6.50
2018-12-18T11:48:10.055Z,6.70
2018-12-18T11:50:38.231Z,6.80
2018-12-18T11:53:06.730Z,6.80
2018-12-18T11:55:35.113Z,6.80
2018-12-18T11:58:03.433Z,7.00
2018-12-18T12:00:31.699Z,7.10
2018-12-18T12:02:59.951Z,7.20
2018-12-18T12:05:28.251Z,7.30
2018-12-18T12:07:56.450Z,7.30
2018-12-18T12:10:24.671Z,7.40
2018-12-18T12:12:52.841Z,7.40
2018-12-18T12:15:20.289Z,7.40
2018-12-18T12:17:48.886Z,7.30
2018-12-18T12:20:17.059Z,7.20
2018-12-18T12:22:45.234Z,7.10
2018-12-18T12:25:13.415Z,7.10
2018-12-18T12:27:46.479Z,7.00
2018-12-18T12:30:14.614Z,6.90
2018-12-18T12:32:42.763Z,6.80
2018-12-18T12:35:11.015Z,6.80
2018-12-18T12:37:39.170Z,7.00
2018-12-18T12:40:07.638Z,7.00
2018-12-18T12:42:35.831Z,7.10
2018-12-18T12:45:04.219Z,7.10
2018-12-18T12:47:32.551Z,7.20
2018-12-18T12:50:00.820Z,7.10
2018-12-18T12:52:28.960Z,7.00
2018-12-18T12:54:57.139Z,7.00
2018-12-18T12:57:26.015Z,7.10
2018-12-18T12:59:54.338Z,7.10
2018-12-18T13:02:22.547Z,7.20
2018-12-18T13:04:51.819Z,7.20
2018-12-18T13:07:20.049Z,7.30
2018-12-18T13:09:48.287Z,7.30
2018-12-18T13:12:16.491Z,7.20
2018-12-18T13:14:44.694Z,7.20
2018-12-18T13:17:12.835Z,7.20
2018-12-18T13:19:40.976Z,7.30
2018-12-18T13:22:09.171Z,7.30
2018-12-18T13:24:37.333Z,7.40
2018-12-18T13:27:05.519Z,7.40
2018-12-18T13:29:34.248Z,7.40
2018-12-18T13:32:02.471Z,7.50
2018-12-18T13:34:30.641Z,7.60
2018-12-18T13:36:58.860Z,7.60
2018-12-18T13:39:27.443Z,7.70
2018-12-18T13:41:55.807Z,7.80
2018-12-18T13:44:24.059Z,7.80
2018-12-18T13:46:52.383Z,7.70
2018-12-18T13:49:20.591Z,7.70
2018-12-18T13:51:48.857Z,7.60
2018-12-18T13:54:17.087Z,7.70
2018-12-18T13:56:45.263Z,7.70
2018-12-18T13:59:13.436Z,7.60
2018-12-18T14:01:41.711Z,7.60
2018-12-18T14:04:09.906Z,7.60
2018-12-18T14:06:38.046Z,7.50
2018-12-18T14:09:08.561Z,7.40
2018-12-18T14:11:36.839Z,7.40
2018-12-18T14:14:05.135Z,7.40
2018-12-18T14:16:33.375Z,7.20
2018-12-18T14:19:01.563Z,7.20
2018-12-18T14:21:29.795Z,7.10
2018-12-18T14:23:58.015Z,7.10
2018-12-18T14:26:26.300Z,7.10
2018-12-18T14:28:54.567Z,7.10
2018-12-18T14:31:22.740Z,6.90
2018-12-18T14:33:50.907Z,6.90
2018-12-18T14:36:19.050Z,6.80
2018-12-18T14:38:47.286Z,6.80
2018-12-18T14:41:15.463Z,6.70
2018-12-18T14:43:43.655Z,6.70
2018-12-18T14:46:11.800Z,6.70
2018-12-18T14:48:39.983Z,6.60
2018-12-18T14:51:08.203Z,6.60
2018-12-18T14:53:36.355Z,6.60
2018-12-18T14:56:04.587Z,6.50
2018-12-18T14:58:32.751Z,6.40
2018-12-18T15:01:00.951Z,6.40
2018-12-18T15:03:29.173Z,6.40
2018-12-18T15:05:57.352Z,6.40
2018-12-18T15:08:25.523Z,6.40
2018-12-18T15:10:53.656Z,6.40
2018-12-18T15:13:21.812Z,6.30
2018-12-18T15:15:49.980Z,6.30
2018-12-18T15:18:18.243Z,6.30
2018-12-18T15:20:46.395Z,6.20
2018-12-18T15:23:14.575Z,6.20
2018-12-18T15:25:42.722Z,6.10
2018-12-18T15:28:11.064Z,6.00
2018-12-18T15:30:39.280Z,6.00
2018-12-18T15:33:07.523Z,5.90
2018-12-18T15:35:35.839Z,5.90
2018-12-18T15:38:04.056Z,5.80
2018-12-18T15:40:31.896Z,5.80
2018-12-18T15:42:59.323Z,5.80
2018-12-18T15:45:27.519Z,5.70
2018-12-18T15:47:55.648Z,5.70
2018-12-18T15:50:23.804Z,5.70
2018-12-18T15:52:51.239Z,5.60
2018-12-18T15:55:18.715Z,5.50
2018-12-18T15:57:46.895Z,5.50
2018-12-18T16:00:14.485Z,5.50
2018-12-18T16:02:42.711Z,5.40
2018-12-18T16:05:10.960Z,5.30
2018-12-18T16:07:40.012Z,5.30
2018-12-18T16:10:08.355Z,5.20
2018-12-18T16:12:36.499Z,5.20
2018-12-18T16:15:05.684Z,5.20
2018-12-18T16:17:33.887Z,5.20
2018-12-18T16:20:02.083Z,5.20
2018-12-18T16:22:30.267Z,5.10
2018-12-18T16:24:59.471Z,5.10
2018-12-18T16:27:27.629Z,5.00
2018-12-18T16:29:55.855Z,5.00
2018-12-18T16:32:24.047Z,4.90
2018-12-18T16:34:52.183Z,4.80
2018-12-18T16:37:23.202Z,4.80
2018-12-18T16:39:50.579Z,4.80
2018-12-18T16:42:18.107Z,4.80
2018-12-18T16:44:45.599Z,4.70
2018-12-18T16:47:13.091Z,4.70
2018-12-18T16:49:41.299Z,4.60
2018-12-18T16:52:09.545Z,4.60
2018-12-18T16:54:37.971Z,4.50
2018-12-18T16:57:06.188Z,4.50
2018-12-18T16:59:34.334Z,4.50
2018-12-18T17:02:02.561Z,4.50
2018-12-18T17:04:30.774Z,4.40
2018-12-18T17:06:58.996Z,4.50
2018-12-18T17:09:27.746Z,4.50
2018-12-18T17:11:55.900Z,4.40
2018-12-18T17:14:24.041Z,4.30
2018-12-18T17:16:52.268Z,4.30
2018-12-18T17:19:20.543Z,4.30
2018-12-18T17:21:48.711Z,4.30
2018-12-18T17:24:21.204Z,4.30
2018-12-18T17:26:49.711Z,4.30
2018-12-18T17:29:17.934Z,4.30
2018-12-18T17:31:46.200Z,4.30
2018-12-18T17:34:14.356Z,4.30
2018-12-18T17:36:42.499Z,4.20
2018-12-18T17:39:10.647Z,4.10
2018-12-18T17:41:38.990Z,4.10
2018-12-18T17:44:07.143Z,4.00
2018-12-18T17:46:35.323Z,3.90
2018-12-18T17:49:03.721Z,3.80
2018-12-18T17:51:31.915Z,3.70
2018-12-18T17:54:00.174Z,3.70
2018-12-18T17:56:28.383Z,3.70
2018-12-18T17:58:56.803Z,3.60
2018-12-18T18:01:27.760Z,4.00
2018-12-18T18:03:56.045Z,3.50
2018-12-18T18:06:24.379Z,3.40
2018-12-18T18:08:53.731Z,3.40
2018-12-18T18:11:21.889Z,3.30
2018-12-18T18:13:50.069Z,3.20
2018-12-18T18:18:52.367Z,3.10
2018-12-18T18:21:20.512Z,3.10
2018-12-18T18:23:48.655Z,3.10
2018-12-18T18:26:17.099Z,3.10
2018-12-18T18:28:45.385Z,3.10
2018-12-18T18:31:13.772Z,3.00
2018-12-18T18:33:42.028Z,2.90
2018-12-18T18:36:10.196Z,2.90
2018-12-18T18:38:38.479Z,2.90
2018-12-18T18:41:05.944Z,2.90
2018-12-18T18:43:34.086Z,2.90
2018-12-18T18:46:02.255Z,3.00
2018-12-18T18:48:30.424Z,2.90
2018-12-18T18:50:58.616Z,2.80
2018-12-18T18:53:27.867Z,2.70
2018-12-18T18:55:55.522Z,2.60
2018-12-18T18:58:23.679Z,2.60
2018-12-18T19:00:51.835Z,2.50
2018-12-18T19:03:20.011Z,2.40
2018-12-18T19:05:48.187Z,2.40
2018-12-18T19:08:15.659Z,2.50
2018-12-18T19:10:43.142Z,2.50
2018-12-18T19:13:11.282Z,2.60
2018-12-18T19:15:41.418Z,2.60
2018-12-18T19:18:09.094Z,2.60
2018-12-18T19:20:36.711Z,2.60
2018-12-18T19:23:04.848Z,2.60
2018-12-18T19:25:32.315Z,2.50
2018-12-18T19:28:00.545Z,2.40
2018-12-18T19:30:28.940Z,2.30
2018-12-18T19:32:57.131Z,2.30
2018-12-18T19:35:25.273Z,2.30
2018-12-18T19:37:53.445Z,2.30
2018-12-18T19:40:21.644Z,2.30
2018-12-18T19:42:49.778Z,2.40
2018-12-18T19:45:17.269Z,2.40
2018-12-18T19:47:45.558Z,2.40
2018-12-18T19:50:13.795Z,2.30
2018-12-18T19:52:42.015Z,2.30
2018-12-18T19:55:10.267Z,2.30
2018-12-18T19:57:37.720Z,2.30
2018-12-18T20:00:06.661Z,2.20
2018-12-18T20:02:34.766Z,2.20
2018-12-18T20:05:02.338Z,2.20
2018-12-18T20:07:29.903Z,2.10
2018-12-18T20:09:58.087Z,2.20
2018-12-18T20:12:26.317Z,2.20
2018-12-18T20:14:54.492Z,2.20
2018-12-18T20:17:22.766Z,2.20
2018-12-18T20:19:51.543Z,2.20
2018-12-18T20:22:19.692Z,2.20
2018-12-18T20:24:47.867Z,2.30
2018-12-18T20:27:16.355Z,2.40
2018-12-18T20:29:44.784Z,2.40
2018-12-18T20:32:13.262Z,2.50
2018-12-18T20:34:41.449Z,2.50
2018-12-18T20:37:10.352Z,2.60
2018-12-18T20:39:38.546Z,2.60
2018-12-18T20:42:06.699Z,2.60
2018-12-18T20:44:34.877Z,2.60
2018-12-18T20:47:02.997Z,2.70
2018-12-18T20:49:31.240Z,2.70
2018-12-18T20:51:59.384Z,2.70
2018-12-18T20:54:27.495Z,2.70
2018-12-18T20:56:55.687Z,2.80
2018-12-18T20:59:23.827Z,2.80
2018-12-18T21:01:52.008Z,2.80
2018-12-18T21:04:20.299Z,2.80
2018-12-18T21:06:48.499Z,2.90
2018-12-18T21:09:16.660Z,2.90
2018-12-18T21:11:44.843Z,2.90
2018-12-18T21:14:13.038Z,2.90
2018-12-18T21:16:41.180Z,2.90
2018-12-18T21:19:09.364Z,2.90
2018-12-18T21:21:37.503Z,3.00
2018-12-18T21:24:05.755Z,3.00
2018-12-18T21:26:34.011Z,3.00
2018-12-18T21:29:02.167Z,3.00
2018-12-18T21:31:30.374Z,3.00
2018-12-18T21:33:58.535Z,3.00
2018-12-18T21:36:26.989Z,3.10
2018-12-18T21:38:55.172Z,3.10
2018-12-18T21:41:23.299Z,3.10
2018-12-18T21:43:51.704Z,3.10
2018-12-18T21:46:19.886Z,3.10
2018-12-18T21:48:48.283Z,3.10
2018-12-18T21:51:16.467Z,3.10
2018-12-18T21:53:44.592Z,3.10
2018-12-18T21:56:12.848Z,3.10
2018-12-18T21:58:41.050Z,3.10
2018-12-18T22:01:09.195Z,3.00
2018-12-18T22:03:37.367Z,3.00
2018-12-18T22:06:05.535Z,3.00
2018-12-18T22:08:36.880Z,3.00
2018-12-18T22:11:03.843Z,3.00
2018-12-18T22:13:32.011Z,3.00
2018-12-18T22:15:59.567Z,2.90
2018-12-18T22:18:27.731Z,2.80
2018-12-18T22:20:55.867Z,2.80
2018-12-18T22:23:24.071Z,2.80
2018-12-18T22:25:51.522Z,2.80
2018-12-18T22:28:18.982Z,2.80
2018-12-18T22:30:47.154Z,2.80
2018-12-18T22:33:15.292Z,2.90
2018-12-18T22:35:43.439Z,2.90
2018-12-18T22:38:11.847Z,2.90
2018-12-18T22:40:40.036Z,2.90
2018-12-18T22:43:08.199Z,2.90
2018-12-18T22:45:36.391Z,2.90
2018-12-18T22:48:04.556Z,2.90
2018-12-18T22:50:32.134Z,2.90
2018-12-18T22:53:00.327Z,2.90
2018-12-18T22:55:27.778Z,2.90
2018-12-18T22:57:56.231Z,2.90
2018-12-18T23:00:29.881Z,2.90
2018-12-18T23:02:57.406Z,2.90
2018-12-18T23:05:24.858Z,3.00
2018-12-18T23:07:52.291Z,2.90
2018-12-18T23:10:19.988Z,3.00
2018-12-18T23:12:47.456Z,3.00
2018-12-18T23:15:15.738Z,3.00
2018-12-18T23:17:43.951Z,3.00
2018-12-18T23:20:12.271Z,3.00
2018-12-18T23:22:39.727Z,3.00
2018-12-18T23:25:07.994Z,3.00
2018-12-18T23:27:36.199Z,3.00
2018-12-18T23:30:05.147Z,3.00
2018-12-18T23:32:33.319Z,3.00
2018-12-18T23:35:00.831Z,3.00
2018-12-18T23:37:28.270Z,3.00
2018-12-18T23:39:56.435Z,3.00
2018-12-18T23:42:24.620Z,3.00
2018-12-18T23:44:52.128Z,3.00
2018-12-18T23:47:19.617Z,3.00
2018-12-18T23:49:47.071Z,3.00
2018-12-18T23:52:15.430Z,3.00
2018-12-18T23:54:43.022Z,3.00
2018-12-18T23:57:11.163Z,3.00
2018-12-18T23:59:38.605Z,3.00
